»·PEaware :: DAL1317 KSLC-KSFO

DAL1317 :: KSLC-KSFO

FLIGHT INFORMATION

Flight Status: Arrived
Operator:
Delta Air Lines
More flights by this operator :: More flights under this callsign
Pilot: Kevin M. (7)
Aircraft: BOEING 737-800
(B738)
More flights by this aircraft type
Origin: KSLC Salt Lake City Intl
United States
Destination: KSFO San Francisco Intl
United States
More flights between these airports :: More routes between these airports
Route: +DEZRT1 BAM J94 LLC LEGGS BDEGA3
File this flight plan on PilotEdge
Remarks:
Altitude:
(Current/Filed)
36,000ft
Speed:
(Current/Filed)
468kts
Departed: 10-Oct-20 10:18 AM
Arrived: 10-Oct-20 11:55 AM
Distance/Time
Traveled:
519nm/1:36
Distance/Time
To Go:
Arrived

Flight Plot

Page will automatically refresh every two minutes.

Flight plan parsing failed; only flown route is shown


Map Options




Map Legend


Flown Route
Filed Route
Departure Airport
Arrival Airport
Navaid (VOR, NDB)
Fix

Horizontal Profiles

Position Reports

Time Latitude Longitude Heading Altitude Ground
Speed
10-Oct-20 09:56 40.788543 -111.984292 251 4238ft 0kts
10-Oct-20 09:57 40.788543 -111.984292 251 4238ft 0kts
10-Oct-20 09:58 40.788543 -111.984292 251 4238ft 0kts
10-Oct-20 09:59 40.788543 -111.984292 251 4238ft 0kts
10-Oct-20 10:00 40.788543 -111.984292 250 4238ft 0kts
10-Oct-20 10:01 40.788543 -111.984292 250 4238ft 0kts
10-Oct-20 10:02 40.788543 -111.984292 250 4238ft 0kts
10-Oct-20 10:03 40.788543 -111.984292 250 4238ft 0kts
10-Oct-20 10:04 40.788543 -111.984292 250 4238ft 0kts
10-Oct-20 10:05 40.788543 -111.984292 250 4238ft 0kts
10-Oct-20 10:06 40.788543 -111.984292 250 4238ft 0kts
10-Oct-20 10:07 40.788720 -111.983612 250 4238ft 1kts
10-Oct-20 10:08 40.788595 -111.983357 341 4238ft 0kts
10-Oct-20 10:09 40.788595 -111.983357 341 4238ft 0kts
10-Oct-20 10:10 40.790000 -111.984805 276 4238ft 14kts
10-Oct-20 10:11 40.789905 -111.988379 265 4238ft 3kts
10-Oct-20 10:12 40.791101 -111.992060 264 4238ft 23kts
10-Oct-20 10:13 40.792362 -111.995293 356 4238ft 16kts
10-Oct-20 10:14 40.798088 -111.995966 352 4238ft 20kts
10-Oct-20 10:15 40.805784 -111.996846 354 4238ft 28kts
10-Oct-20 10:16 40.806288 -111.999110 174 4238ft 22kts
10-Oct-20 10:17 40.768994 -111.997371 198 5525ft 182kts
10-Oct-20 10:18 40.769160 -112.067844 304 7241ft 277kts
10-Oct-20 10:19 40.798458 -112.159310 282 10128ft 292kts
10-Oct-20 10:20 40.829836 -112.273222 288 11213ft 370kts
10-Oct-20 10:21 40.869974 -112.406865 288 12806ft 402kts
10-Oct-20 10:22 40.876830 -112.549838 256 14899ft 404kts
10-Oct-20 10:23 40.860018 -112.698075 259 16532ft 409kts
10-Oct-20 10:24 40.844860 -112.848508 264 18506ft 420kts
10-Oct-20 10:25 40.842824 -113.005302 268 20290ft 431kts
10-Oct-20 10:26 40.843122 -113.165254 269 22037ft 439kts
10-Oct-20 10:27 40.843413 -113.327515 269 23732ft 446kts
10-Oct-20 10:28 40.843548 -113.492935 269 25237ft 455kts
10-Oct-20 10:29 40.843484 -113.660236 269 26889ft 455kts
10-Oct-20 10:30 40.843151 -113.826897 269 28720ft 450kts
10-Oct-20 10:31 40.841581 -113.990377 269 30522ft 444kts
10-Oct-20 10:32 40.840217 -114.152772 270 32187ft 439kts
10-Oct-20 10:33 40.839023 -114.313257 270 33713ft 434kts
10-Oct-20 10:34 40.837728 -114.471507 270 35097ft 431kts
10-Oct-20 10:35 40.836151 -114.629367 270 35977ft 429kts
10-Oct-20 10:36 40.828784 -114.785803 263 36003ft 427kts
10-Oct-20 10:37 40.812066 -114.941458 263 36035ft 427kts
10-Oct-20 10:38 40.794777 -115.095656 263 36093ft 422kts
10-Oct-20 10:39 40.777566 -115.248113 263 37283ft 419kts
10-Oct-20 10:40 40.760058 -115.399648 262 38036ft 419kts
10-Oct-20 10:41 40.741738 -115.551378 262 38041ft 416kts
10-Oct-20 10:42 40.723726 -115.701764 262 38044ft 415kts
10-Oct-20 10:43 40.705695 -115.852855 262 37752ft 420kts
10-Oct-20 10:44 40.687476 -116.003744 262 36750ft 412kts
10-Oct-20 10:45 40.669123 -116.153126 262 35764ft 418kts
10-Oct-20 10:46 40.650550 -116.304357 261 34742ft 415kts
10-Oct-20 10:47 40.631810 -116.454628 262 33708ft 420kts
10-Oct-20 10:48 40.612614 -116.607053 262 32679ft 422kts
10-Oct-20 10:49 40.593027 -116.760454 261 32039ft 425kts
10-Oct-20 10:50 40.569214 -116.913829 253 32041ft 431kts
10-Oct-20 10:51 40.532755 -117.061567 256 32031ft 422kts
10-Oct-20 10:52 40.495098 -117.208980 257 32030ft 426kts
10-Oct-20 10:53 40.456830 -117.355681 257 32032ft 426kts
10-Oct-20 10:55 40.418042 -117.503067 256 32032ft 427kts
10-Oct-20 10:56 40.379264 -117.649635 256 32033ft 421kts
10-Oct-20 10:57 40.340498 -117.795085 256 32039ft 426kts
10-Oct-20 10:58 40.301067 -117.942366 256 32044ft 423kts
10-Oct-20 10:59 40.261652 -118.088579 256 32044ft 425kts
10-Oct-20 11:00 40.222462 -118.233413 256 32050ft 424kts
10-Oct-20 11:01 40.182951 -118.378695 256 32045ft 424kts
10-Oct-20 11:02 40.143058 -118.524377 256 32042ft 425kts
10-Oct-20 11:03 40.100629 -118.669172 253 32051ft 428kts
10-Oct-20 11:04 40.056215 -118.812783 254 32056ft 430kts
10-Oct-20 11:05 40.012805 -118.954829 255 32052ft 412kts
10-Oct-20 11:06 39.970617 -119.093269 257 32056ft 409kts
10-Oct-20 11:07 39.928429 -119.231525 257 32076ft 409kts
10-Oct-20 11:08 39.886252 -119.369443 257 32073ft 410kts
10-Oct-20 11:09 39.843893 -119.507334 257 32077ft 410kts
10-Oct-20 11:10 39.801290 -119.645466 257 32076ft 410kts
10-Oct-20 11:10 39.765456 -119.760887 256 32091ft 412kts
10-Oct-20 11:12 39.715289 -119.921706 256 32089ft 411kts
10-Oct-20 11:12 39.679234 -120.036845 256 32088ft 411kts
10-Oct-20 11:13 39.636054 -120.174163 256 32095ft 412kts
10-Oct-20 11:14 39.592661 -120.311551 256 32121ft 410kts
10-Oct-20 11:15 39.549153 -120.448570 256 32143ft 411kts
10-Oct-20 11:16 39.505479 -120.585389 256 32147ft 410kts
10-Oct-20 11:17 39.461576 -120.722091 255 32159ft 411kts
10-Oct-20 11:18 39.417475 -120.858572 255 32127ft 411kts
10-Oct-20 11:19 39.373222 -120.995054 255 32094ft 411kts
10-Oct-20 11:20 39.314789 -121.125180 245 32091ft 422kts
10-Oct-20 11:21 39.239551 -121.245515 240 32081ft 430kts
10-Oct-20 11:22 39.162730 -121.363486 240 32044ft 429kts
10-Oct-20 11:23 39.085530 -121.481589 240 32017ft 429kts
10-Oct-20 11:24 39.008665 -121.598758 240 32022ft 432kts
10-Oct-20 11:25 38.930251 -121.717903 239 32039ft 443kts
10-Oct-20 11:26 38.849822 -121.839558 239 32029ft 448kts
10-Oct-20 11:27 38.769241 -121.960912 239 32033ft 447kts
10-Oct-20 11:28 38.688883 -122.081469 239 32031ft 440kts
10-Oct-20 11:29 38.609282 -122.200559 239 32036ft 441kts
10-Oct-20 11:30 38.529157 -122.320094 238 30265ft 448kts
10-Oct-20 11:31 38.451473 -122.434971 237 28110ft 405kts
10-Oct-20 11:32 38.381319 -122.536957 237 26504ft 370kts
10-Oct-20 11:33 38.315712 -122.633696 236 24434ft 350kts
10-Oct-20 11:34 38.252093 -122.723742 223 22406ft 342kts
10-Oct-20 11:35 38.158192 -122.748809 174 20495ft 382kts
10-Oct-20 11:36 38.057400 -122.719178 173 18378ft 364kts
10-Oct-20 11:37 37.961223 -122.691161 172 16406ft 345kts
10-Oct-20 11:38 37.874133 -122.646432 147 14410ft 345kts
10-Oct-20 11:39 37.802103 -122.570237 144 12796ft 323kts
10-Oct-20 11:40 37.734291 -122.498437 144 11083ft 310kts
10-Oct-20 11:41 37.692983 -122.408978 117 9934ft 308kts
10-Oct-20 11:42 37.656870 -122.312916 118 8454ft 300kts
10-Oct-20 11:43 37.620900 -122.218991 118 7127ft 293kts
10-Oct-20 11:44 37.586308 -122.128372 118 6023ft 278kts
10-Oct-20 11:45 37.553162 -122.043589 118 4514ft 263kts
10-Oct-20 11:46 37.514458 -121.975482 170 4010ft 229kts
10-Oct-20 11:47 37.479106 -122.024760 271 3986ft 216kts
10-Oct-20 11:48 37.501830 -122.093540 298 3821ft 213kts
10-Oct-20 11:49 37.529058 -122.160453 296 3527ft 220kts
10-Oct-20 11:50 37.555411 -122.223101 298 2391ft 185kts
10-Oct-20 11:51 37.579363 -122.281167 300 1345ft 173kts
10-Oct-20 11:52 37.598619 -122.327372 301 444ft 144kts
10-Oct-20 11:53 37.616986 -122.370896 297 17ft 93kts
10-Oct-20 11:54 37.619549 -122.379465 228 36ft 5kts
10-Oct-20 11:55 37.615180 -122.381121 260 36ft 11kts
10-Oct-20 11:56 37.615110 -122.381844 264 37ft 0kts
10-Oct-20 11:57 37.615110 -122.381844 264 37ft 0kts
10-Oct-20 11:58 37.615110 -122.381844 264 37ft 0kts

Navigation Log

Ident Type
Flight plan parsing failed, navigation log unavailable